createdAt,value
2017-07-04T00:00:24.047Z,23
2017-07-04T00:01:33.008Z,22.95
2017-07-04T00:02:42.274Z,23.01
2017-07-04T00:03:51.229Z,22.94
2017-07-04T00:05:00.506Z,23.02
2017-07-04T00:06:10.145Z,22.94
2017-07-04T00:07:19.408Z,22.92
2017-07-04T00:08:28.061Z,22.91
2017-07-04T00:09:37.322Z,22.92
2017-07-04T00:10:46.270Z,22.92
2017-07-04T00:11:55.393Z,22.97
2017-07-04T00:13:04.727Z,22.94
2017-07-04T00:14:13.987Z,22.94
2017-07-04T00:15:22.938Z,22.92
2017-07-04T00:16:31.894Z,22.98
2017-07-04T00:17:40.891Z,22.97
2017-07-04T00:18:49.845Z,22.97
2017-07-04T00:19:59.430Z,23.05
2017-07-04T00:21:08.686Z,23.05
2017-07-04T00:22:17.346Z,23.05
2017-07-04T00:23:26.452Z,23.05
2017-07-04T00:24:35.402Z,23.05
2017-07-04T00:25:44.667Z,23.13
2017-07-04T00:26:53.304Z,23.15
2017-07-04T00:28:02.571Z,23.15
2017-07-04T00:29:11.525Z,23.15
2017-07-04T00:30:20.177Z,23.13
2017-07-04T00:31:29.122Z,23.15
2017-07-04T00:32:38.402Z,23.15
2017-07-04T00:33:47.986Z,23.15
2017-07-04T00:34:57.093Z,23.15
2017-07-04T00:36:05.750Z,23.16
2017-07-04T00:37:15.035Z,23.19
2017-07-04T00:38:24.001Z,23.22
2017-07-04T00:39:33.595Z,23.23
2017-07-04T00:40:42.694Z,23.27
2017-07-04T00:41:51.649Z,23.23
2017-07-04T00:43:00.284Z,23.33
2017-07-04T00:44:08.975Z,23.28
2017-07-04T00:45:17.925Z,23.38
2017-07-04T00:46:27.030Z,23.35
2017-07-04T00:47:36.313Z,23.33
2017-07-04T00:48:45.590Z,23.46
2017-07-04T00:49:54.853Z,23.42
2017-07-04T00:51:03.810Z,23.47
2017-07-04T00:52:13.059Z,23.51
2017-07-04T00:53:22.314Z,23.54
2017-07-04T00:54:31.901Z,23.48
2017-07-04T00:55:40.857Z,23.53
2017-07-04T00:56:50.447Z,23.5
2017-07-04T00:57:59.400Z,23.55
2017-07-04T00:59:08.032Z,23.46
2017-07-04T01:00:16.977Z,23.47
2017-07-04T01:01:26.248Z,23.46
2017-07-04T01:02:35.525Z,23.47
2017-07-04T01:03:44.631Z,23.43
2017-07-04T01:04:53.587Z,23.39
2017-07-04T01:06:02.544Z,23.32
2017-07-04T01:07:11.804Z,23.43
2017-07-04T01:08:20.434Z,23.42
2017-07-04T01:09:29.177Z,23.28
2017-07-04T01:10:38.143Z,23.19
2017-07-04T01:11:47.728Z,23.19
2017-07-04T01:12:57.325Z,23.13
2017-07-04T01:14:07.223Z,23.17
2017-07-04T01:15:16.179Z,23.09
2017-07-04T01:16:24.818Z,23.05
2017-07-04T01:17:34.089Z,23.02
2017-07-04T01:18:43.060Z,23.12
2017-07-04T01:19:52.326Z,23.13
2017-07-04T01:21:01.759Z,23.09
2017-07-04T01:22:10.734Z,23.15
2017-07-04T01:23:19.687Z,23.17
2017-07-04T01:24:28.354Z,23.15
2017-07-04T01:25:37.316Z,23.13
2017-07-04T01:26:46.574Z,23.09
2017-07-04T01:27:55.844Z,23.12
2017-07-04T01:29:04.787Z,23.02
2017-07-04T01:30:13.741Z,23.16
2017-07-04T01:31:22.693Z,23.12
2017-07-04T01:32:31.756Z,23.17
2017-07-04T01:33:40.417Z,23.25
2017-07-04T01:34:49.691Z,23.23
2017-07-04T01:35:58.956Z,23.15
2017-07-04T01:37:07.593Z,23.1
2017-07-04T01:38:16.586Z,23.19
2017-07-04T01:39:25.848Z,23.17
2017-07-04T01:40:34.482Z,23.04
2017-07-04T01:41:43.446Z,23.13
2017-07-04T01:42:52.389Z,23.1
2017-07-04T01:44:01.457Z,23.09
2017-07-04T01:45:10.107Z,23.1
2017-07-04T01:46:19.383Z,23.05
2017-07-04T01:47:28.646Z,23.01
2017-07-04T01:48:37.602Z,22.94
2017-07-04T01:49:46.708Z,22.98
2017-07-04T01:50:55.664Z,22.92
2017-07-04T01:52:04.940Z,22.92
2017-07-04T01:53:13.899Z,22.95
2017-07-04T01:54:23.174Z,22.97
2017-07-04T01:55:32.448Z,22.88
2017-07-04T01:56:41.410Z,22.91
2017-07-04T01:57:50.692Z,22.85
2017-07-04T01:58:59.652Z,22.88
2017-07-04T02:00:08.316Z,22.83
2017-07-04T02:01:17.283Z,22.82
2017-07-04T02:02:26.249Z,22.8
2017-07-04T02:03:35.203Z,22.79
2017-07-04T02:04:44.489Z,22.8
2017-07-04T02:05:53.455Z,22.77
2017-07-04T02:07:02.452Z,22.77
2017-07-04T02:08:11.411Z,22.82
2017-07-04T02:09:20.366Z,22.86
2017-07-04T02:10:29.641Z,22.86
2017-07-04T02:11:38.282Z,22.88
2017-07-04T02:12:47.022Z,22.88
2017-07-04T02:13:56.027Z,22.92
2017-07-04T02:15:05.599Z,23
2017-07-04T02:16:14.545Z,22.94
2017-07-04T02:17:23.502Z,22.98
2017-07-04T02:18:33.182Z,23.04
2017-07-04T02:19:41.835Z,23.04
2017-07-04T02:20:50.790Z,23.05
2017-07-04T02:21:59.746Z,23.02
2017-07-04T02:23:09.643Z,23.04
2017-07-04T02:24:19.026Z,23.07
2017-07-04T02:25:27.969Z,23
2017-07-04T02:26:37.558Z,22.95
2017-07-04T02:27:46.826Z,22.91
2017-07-04T02:28:55.481Z,22.9
2017-07-04T02:30:05.435Z,22.88
2017-07-04T02:31:14.381Z,22.86
2017-07-04T02:32:23.009Z,22.85
2017-07-04T02:33:31.962Z,22.83
2017-07-04T02:34:40.595Z,22.82
2017-07-04T02:35:49.385Z,22.79
2017-07-04T02:36:58.658Z,22.79
2017-07-04T02:38:07.933Z,22.8
2017-07-04T02:39:17.232Z,22.79
2017-07-04T02:40:26.803Z,22.83
2017-07-04T02:41:35.499Z,22.79
2017-07-04T02:42:44.138Z,22.82
2017-07-04T02:43:53.720Z,22.7
2017-07-04T02:45:03.294Z,22.7
2017-07-04T02:46:11.926Z,22.7
2017-07-04T02:47:20.560Z,22.7
2017-07-04T02:48:29.524Z,22.72
2017-07-04T02:49:38.787Z,22.64
2017-07-04T02:50:47.746Z,22.73
2017-07-04T02:51:57.319Z,22.7
2017-07-04T02:53:06.062Z,22.6
2017-07-04T02:54:15.018Z,22.67
2017-07-04T02:55:23.968Z,22.61
2017-07-04T02:56:33.225Z,22.61
2017-07-04T02:57:42.170Z,22.67
2017-07-04T02:58:51.273Z,22.61
2017-07-04T03:00:00.861Z,22.57
2017-07-04T03:01:10.429Z,22.58
2017-07-04T03:02:19.425Z,22.49
2017-07-04T03:03:28.695Z,22.55
2017-07-04T03:04:38.053Z,22.55
2017-07-04T03:05:46.697Z,22.58
2017-07-04T03:06:55.650Z,22.62
2017-07-04T03:08:04.919Z,22.62
2017-07-04T03:09:13.877Z,22.65
2017-07-04T03:10:23.611Z,22.62
2017-07-04T03:11:32.563Z,22.62
2017-07-04T03:12:41.843Z,22.6
2017-07-04T03:13:50.484Z,22.6
2017-07-04T03:14:59.754Z,22.58
2017-07-04T03:16:08.806Z,22.72
2017-07-04T03:17:17.771Z,22.72
2017-07-04T03:18:27.047Z,22.72
2017-07-04T03:19:35.696Z,22.72
2017-07-04T03:20:44.652Z,22.77
2017-07-04T03:21:53.454Z,22.7
2017-07-04T03:23:02.098Z,22.76
2017-07-04T03:24:11.677Z,22.9
2017-07-04T03:25:20.631Z,22.77
2017-07-04T03:26:30.828Z,22.88
2017-07-04T03:27:40.402Z,22.88
2017-07-04T03:28:49.664Z,22.85
2017-07-04T03:29:58.298Z,22.82
2017-07-04T03:31:07.249Z,22.77
2017-07-04T03:32:15.882Z,22.82
2017-07-04T03:33:24.668Z,22.76
2017-07-04T03:34:33.622Z,22.76
2017-07-04T03:35:42.570Z,22.72
2017-07-04T03:36:51.847Z,22.73
2017-07-04T03:38:26.488Z,22.58
2017-07-04T03:39:35.749Z,22.68
2017-07-04T03:40:44.388Z,22.67
2017-07-04T03:41:53.664Z,22.6
2017-07-04T03:43:02.927Z,22.54
2017-07-04T03:44:12.209Z,22.62
2017-07-04T03:45:20.855Z,22.61
2017-07-04T03:46:29.800Z,22.6
2017-07-04T03:47:39.063Z,22.64
2017-07-04T03:48:47.702Z,22.52
2017-07-04T03:49:56.669Z,22.58
2017-07-04T03:51:05.309Z,22.52
2017-07-04T03:52:14.261Z,22.42
2017-07-04T03:53:22.901Z,22.37
2017-07-04T03:54:31.858Z,22.43
2017-07-04T03:55:40.808Z,22.4
2017-07-04T03:56:50.081Z,22.46
2017-07-04T03:57:59.344Z,22.45
2017-07-04T03:59:07.993Z,22.36
2017-07-04T04:00:16.953Z,22.37
2017-07-04T04:01:25.609Z,22.57
2017-07-04T04:02:34.874Z,22.55
2017-07-04T04:03:43.528Z,22.52
2017-07-04T04:04:52.794Z,22.67
2017-07-04T04:06:02.046Z,22.64
2017-07-04T04:07:10.990Z,22.62
2017-07-04T04:08:19.627Z,22.73
2017-07-04T04:09:28.283Z,22.68
2017-07-04T04:10:38.518Z,22.72
2017-07-04T04:11:47.485Z,22.72
2017-07-04T04:12:56.759Z,22.7
2017-07-04T04:14:06.654Z,22.72
2017-07-04T04:15:15.614Z,22.72
2017-07-04T04:16:24.895Z,22.79
2017-07-04T04:17:33.854Z,22.82
2017-07-04T04:18:42.500Z,22.8
2017-07-04T04:19:51.762Z,22.79
2017-07-04T04:21:00.722Z,22.88
2017-07-04T04:22:09.682Z,22.94
2017-07-04T04:23:18.629Z,22.92
2017-07-04T04:24:27.903Z,23.02
2017-07-04T04:25:36.861Z,23.02
2017-07-04T04:26:46.121Z,22.97
2017-07-04T04:27:55.438Z,23.01
2017-07-04T04:29:04.962Z,23.02
2017-07-04T04:30:14.549Z,23.05
2017-07-04T04:31:23.183Z,23.02
2017-07-04T04:32:33.405Z,23.04
2017-07-04T04:33:42.989Z,23.05
2017-07-04T04:34:52.252Z,23.07
2017-07-04T04:36:01.512Z,23.07
2017-07-04T04:37:10.519Z,23.01
2017-07-04T04:38:19.158Z,23.05
2017-07-04T04:39:28.457Z,23.01
2017-07-04T04:40:37.734Z,23.07
2017-07-04T04:41:47.045Z,23.04
2017-07-04T04:42:56.007Z,23.1
2017-07-04T04:44:05.302Z,22.98
2017-07-04T04:45:14.880Z,23
2017-07-04T04:46:24.159Z,23.02
2017-07-04T04:47:32.788Z,22.88
2017-07-04T04:48:42.044Z,22.95
2017-07-04T04:49:50.679Z,22.86
2017-07-04T04:50:59.945Z,22.9
2017-07-04T04:52:08.891Z,22.88
2017-07-04T04:53:18.156Z,22.8
2017-07-04T04:54:26.816Z,22.8
2017-07-04T04:55:36.077Z,22.8
2017-07-04T04:56:45.036Z,22.83
2017-07-04T04:57:54.313Z,22.83
2017-07-04T04:59:02.954Z,22.83
2017-07-04T05:00:12.225Z,22.86
2017-07-04T05:01:21.492Z,22.82
2017-07-04T05:02:30.511Z,22.7
2017-07-04T05:03:39.470Z,22.68
2017-07-04T05:04:48.429Z,22.75
2017-07-04T05:05:57.079Z,22.67
2017-07-04T05:07:06.353Z,22.7
2017-07-04T05:08:14.991Z,22.75
2017-07-04T05:09:24.596Z,22.65
2017-07-04T05:10:33.871Z,22.72
2017-07-04T05:11:42.822Z,22.7
2017-07-04T05:12:52.102Z,22.8
2017-07-04T05:14:01.065Z,22.83
2017-07-04T05:15:10.324Z,22.86
2017-07-04T05:16:20.225Z,22.83
2017-07-04T05:17:29.487Z,22.85
2017-07-04T05:18:38.435Z,22.8
2017-07-04T05:19:47.396Z,22.86
2017-07-04T05:20:56.341Z,22.86
2017-07-04T05:22:05.307Z,22.92
2017-07-04T05:23:14.886Z,22.88
2017-07-04T05:24:23.853Z,22.85
2017-07-04T05:25:32.504Z,22.79
2017-07-04T05:26:41.154Z,22.85
2017-07-04T05:27:51.060Z,22.8
2017-07-04T05:29:00.332Z,22.77
2017-07-04T05:30:09.297Z,22.82
2017-07-04T05:31:18.564Z,22.85
2017-07-04T05:32:27.827Z,22.76
2017-07-04T05:33:37.410Z,22.73
2017-07-04T05:34:46.378Z,22.67
2017-07-04T05:35:55.648Z,22.73
2017-07-04T05:37:04.913Z,22.75
2017-07-04T05:38:14.487Z,22.77
2017-07-04T05:39:23.770Z,22.7
2017-07-04T05:40:33.355Z,22.67
2017-07-04T05:41:42.301Z,22.68
2017-07-04T05:42:51.260Z,22.73
2017-07-04T05:44:00.213Z,22.82
2017-07-04T05:45:08.846Z,22.92
2017-07-04T05:46:18.746Z,22.92
2017-07-04T05:47:27.697Z,23.02
2017-07-04T05:48:36.340Z,23.15
2017-07-04T05:49:45.293Z,23.27
2017-07-04T05:50:54.242Z,23.27
2017-07-04T05:52:02.887Z,23.33
2017-07-04T05:53:11.536Z,23.4
2017-07-04T05:54:20.185Z,23.43
2017-07-04T05:55:29.740Z,23.58
2017-07-04T05:56:38.375Z,23.6
2017-07-04T05:57:47.669Z,23.57
2017-07-04T05:58:57.231Z,23.68
2017-07-04T06:00:05.860Z,23.7
2017-07-04T06:01:14.834Z,23.73
2017-07-04T06:02:23.471Z,23.8
2017-07-04T06:03:32.433Z,23.85
2017-07-04T06:04:41.704Z,23.85
2017-07-04T06:05:50.981Z,23.97
2017-07-04T06:07:00.574Z,23.97
2017-07-04T06:08:09.540Z,24.1
2017-07-04T06:09:18.482Z,24.06
2017-07-04T06:10:27.435Z,24.15
2017-07-04T06:11:36.069Z,24.22
2017-07-04T06:12:45.016Z,24.28
2017-07-04T06:13:53.977Z,24.34
2017-07-04T06:15:03.250Z,24.31
2017-07-04T06:16:12.212Z,24.47
2017-07-04T06:17:20.861Z,24.37
2017-07-04T06:18:29.513Z,24.47
2017-07-04T06:19:39.409Z,24.55
2017-07-04T06:20:49.001Z,24.52
2017-07-04T06:21:58.264Z,24.64
2017-07-04T06:23:06.919Z,24.68
2017-07-04T06:24:15.878Z,24.71
2017-07-04T06:25:24.857Z,24.77
2017-07-04T06:26:34.137Z,24.8
2017-07-04T06:27:43.417Z,24.84
2017-07-04T06:28:52.675Z,24.84
2017-07-04T06:30:01.332Z,24.91
2017-07-04T06:31:10.284Z,24.96
2017-07-04T06:32:19.549Z,25.05
2017-07-04T06:33:28.183Z,25.18
2017-07-04T06:34:37.456Z,25.27
2017-07-04T06:35:46.408Z,25.27
2017-07-04T06:36:55.675Z,25.39
2017-07-04T06:38:04.622Z,25.38
2017-07-04T06:39:13.954Z,25.5
2017-07-04T06:40:23.210Z,25.61
2017-07-04T06:41:32.477Z,25.67
2017-07-04T06:42:41.460Z,25.65
2017-07-04T06:43:50.110Z,25.82
2017-07-04T06:44:59.386Z,25.9
2017-07-04T06:46:08.384Z,25.94
2017-07-04T06:47:17.340Z,26.02
2017-07-04T06:48:26.293Z,26.02
2017-07-04T06:49:35.633Z,25.99
2017-07-04T06:50:45.209Z,25.97
2017-07-04T06:51:54.187Z,26.02
2017-07-04T06:53:03.148Z,25.97
2017-07-04T06:54:12.160Z,25.98
2017-07-04T06:55:21.113Z,26.02
2017-07-04T06:56:30.067Z,26.01
2017-07-04T06:57:39.333Z,25.98
2017-07-04T06:58:47.972Z,25.98
2017-07-04T06:59:57.549Z,26.09
2017-07-04T07:01:06.508Z,25.98
2017-07-04T07:02:15.149Z,25.99
2017-07-04T07:03:24.099Z,26.05
2017-07-04T07:04:33.365Z,25.98
2017-07-04T07:05:42.031Z,26.06
2017-07-04T07:06:50.986Z,25.95
2017-07-04T07:08:00.255Z,25.94
2017-07-04T07:09:09.591Z,25.97
2017-07-04T07:10:18.584Z,26.02
2017-07-04T07:11:27.547Z,26.02
2017-07-04T07:12:36.508Z,26.12
2017-07-04T07:13:45.168Z,26.2
2017-07-04T07:14:54.442Z,26.4
2017-07-04T07:16:03.708Z,26.51
2017-07-04T07:17:12.978Z,26.84
2017-07-04T07:18:22.246Z,27.04
2017-07-04T07:19:31.206Z,27.31
2017-07-04T07:20:40.173Z,27.47
2017-07-04T07:21:49.439Z,27.82
2017-07-04T07:22:58.080Z,28.03
2017-07-04T07:24:07.028Z,28.33
2017-07-04T07:25:16.616Z,28.59
2017-07-04T07:26:25.258Z,28.89
2017-07-04T07:27:34.206Z,29.21
2017-07-04T07:28:43.476Z,29.49
2017-07-04T07:29:52.122Z,29.63
2017-07-04T07:31:02.033Z,29.98
2017-07-04T07:32:10.995Z,30.32
2017-07-04T07:33:20.594Z,30.53
2017-07-04T07:34:29.884Z,30.84
2017-07-04T07:35:38.534Z,30.97
2017-07-04T07:36:47.502Z,31.25
2017-07-04T07:37:56.797Z,31.54
2017-07-04T07:39:05.763Z,31.69
2017-07-04T07:40:14.424Z,31.8
2017-07-04T07:41:23.389Z,31.72
2017-07-04T07:42:32.035Z,31.69
2017-07-04T07:43:40.685Z,31.81
2017-07-04T07:44:49.643Z,32.08
2017-07-04T07:45:58.600Z,32.35
2017-07-04T07:47:07.563Z,32.57
2017-07-04T07:48:16.839Z,32.81
2017-07-04T07:49:25.484Z,32.93
2017-07-04T07:50:34.765Z,33.15
2017-07-04T07:51:43.405Z,33.37
2017-07-04T07:52:52.989Z,33.31
2017-07-04T07:54:01.643Z,33.45
2017-07-04T07:55:10.605Z,33.63
2017-07-04T07:56:19.570Z,33.81
2017-07-04T07:57:28.842Z,33.61
2017-07-04T07:58:37.518Z,33.21
2017-07-04T07:59:46.473Z,32.85
2017-07-04T08:00:56.062Z,32.44
2017-07-04T08:02:05.030Z,32.06
2017-07-04T08:03:14.623Z,31.68
2017-07-04T08:04:23.606Z,31.47
2017-07-04T08:05:32.278Z,31.43
2017-07-04T08:06:40.923Z,31.78
2017-07-04T08:07:50.212Z,31.92
2017-07-04T08:08:59.805Z,32.26
2017-07-04T08:10:09.098Z,32.55
2017-07-04T08:11:18.053Z,32.78
2017-07-04T08:12:27.029Z,32.99
2017-07-04T08:13:36.633Z,33.03
2017-07-04T08:14:45.600Z,32.72
2017-07-04T08:15:54.260Z,32.38
2017-07-04T08:17:02.927Z,32.04
2017-07-04T08:18:12.202Z,31.65
2017-07-04T08:19:21.200Z,31.32
2017-07-04T08:20:30.176Z,31.04
2017-07-04T08:21:38.826Z,30.75
2017-07-04T08:22:47.478Z,30.49
2017-07-04T08:23:56.126Z,30.34
2017-07-04T08:25:05.407Z,30.16
2017-07-04T08:26:14.705Z,30.17
2017-07-04T08:27:23.988Z,30.55
2017-07-04T08:28:33.276Z,31.02
2017-07-04T08:29:42.588Z,31.51
2017-07-04T08:30:51.643Z,31.92
2017-07-04T08:32:00.622Z,32.43
2017-07-04T08:33:10.274Z,32.69
2017-07-04T08:34:18.968Z,33.04
2017-07-04T08:35:28.247Z,33.44
2017-07-04T08:36:37.222Z,33.76
2017-07-04T08:37:46.199Z,33.97
2017-07-04T08:38:55.173Z,34.22
2017-07-04T08:40:03.892Z,34.49
2017-07-04T08:41:12.868Z,34.62
2017-07-04T08:42:22.165Z,34.78
2017-07-04T08:43:31.125Z,34.56
2017-07-04T08:44:39.789Z,34.34
2017-07-04T08:45:48.458Z,34.05
2017-07-04T08:46:57.113Z,33.86
2017-07-04T08:48:05.762Z,33.61
2017-07-04T08:49:15.379Z,33.32
2017-07-04T08:50:24.983Z,33.15
2017-07-04T08:51:34.262Z,32.94
2017-07-04T08:52:42.922Z,32.7
2017-07-04T08:53:51.896Z,32.57
2017-07-04T08:55:00.548Z,32.28
2017-07-04T08:56:09.830Z,32.08
2017-07-04T08:57:18.792Z,31.81
2017-07-04T08:58:27.761Z,31.66
2017-07-04T08:59:36.729Z,31.53
2017-07-04T09:00:46.018Z,31.39
2017-07-04T09:01:54.981Z,31.21
2017-07-04T09:03:04.262Z,31.07
2017-07-04T09:04:13.539Z,30.92
2017-07-04T09:05:22.195Z,30.82
2017-07-04T09:06:31.153Z,30.69
2017-07-04T09:07:39.805Z,30.49
2017-07-04T09:08:48.473Z,30.35
2017-07-04T09:09:57.446Z,30.26
2017-07-04T09:11:06.727Z,30.16
2017-07-04T09:12:15.732Z,30.1
2017-07-04T09:13:24.659Z,29.95
2017-07-04T09:14:33.327Z,29.8
2017-07-04T09:15:42.316Z,29.68
2017-07-04T09:16:51.987Z,29.57
2017-07-04T09:18:00.951Z,29.45
2017-07-04T09:19:09.926Z,29.28
2017-07-04T09:20:19.511Z,29.24
2017-07-04T09:21:28.486Z,29.12
2017-07-04T09:22:37.466Z,28.98
2017-07-04T09:23:46.127Z,28.89
2017-07-04T09:24:54.782Z,28.8
2017-07-04T09:26:03.741Z,28.66
2017-07-04T09:27:12.401Z,28.66
2017-07-04T09:28:21.367Z,28.55
2017-07-04T09:29:30.341Z,28.49
2017-07-04T09:30:39.303Z,28.49
2017-07-04T09:31:48.584Z,28.36
2017-07-04T09:32:57.869Z,28.36
2017-07-04T09:34:06.833Z,28.3
2017-07-04T09:35:15.489Z,28.22
2017-07-04T09:36:24.145Z,28.19
2017-07-04T09:37:32.796Z,28.06
2017-07-04T09:38:41.767Z,28.07
2017-07-04T09:39:50.416Z,28.04
2017-07-04T09:40:59.074Z,28.02
2017-07-04T09:42:08.033Z,27.96
2017-07-04T09:43:17.317Z,27.99
2017-07-04T09:44:25.992Z,27.88
2017-07-04T09:45:34.671Z,27.88
2017-07-04T09:46:43.965Z,27.88
2017-07-04T09:47:52.632Z,27.82
2017-07-04T09:49:02.219Z,27.9
2017-07-04T09:50:10.898Z,27.79
2017-07-04T09:51:19.866Z,27.85
2017-07-04T09:52:29.311Z,27.75
2017-07-04T09:53:37.965Z,27.78
2017-07-04T09:54:46.929Z,27.74
2017-07-04T09:55:55.588Z,27.7
2017-07-04T09:57:04.234Z,27.67
2017-07-04T09:58:13.192Z,27.65
2017-07-04T09:59:22.160Z,27.67
2017-07-04T10:00:31.189Z,27.62
2017-07-04T10:01:40.465Z,27.63
2017-07-04T10:02:49.746Z,27.46
2017-07-04T10:03:58.397Z,27.39
2017-07-04T10:05:07.366Z,27.31
2017-07-04T10:06:16.020Z,27.39
2017-07-04T10:07:25.302Z,27.39
2017-07-04T10:08:34.574Z,27.24
2017-07-04T10:09:43.565Z,27.24
2017-07-04T10:10:52.854Z,27.34
2017-07-04T10:12:01.829Z,27.28
2017-07-04T10:13:10.863Z,27.27
2017-07-04T10:14:19.785Z,27.25
2017-07-04T10:15:28.442Z,27.25
2017-07-04T10:16:37.106Z,27.19
2017-07-04T10:17:46.704Z,27.18
2017-07-04T10:18:55.358Z,27.17
2017-07-04T10:20:04.319Z,27.09
2017-07-04T10:21:13.646Z,27.13
2017-07-04T10:22:22.308Z,27.12
2017-07-04T10:23:31.911Z,27.13
2017-07-04T10:24:40.875Z,27.12
2017-07-04T10:25:49.922Z,27.07
2017-07-04T10:26:58.912Z,27.09
2017-07-04T10:28:08.204Z,27.13
2017-07-04T10:29:17.480Z,27.1
2017-07-04T10:30:26.123Z,27.06
2017-07-04T10:31:35.411Z,27.07
2017-07-04T10:32:44.459Z,27.02
2017-07-04T10:33:53.109Z,27.03
2017-07-04T10:35:02.142Z,27.03
2017-07-04T10:36:11.117Z,26.97
2017-07-04T10:37:19.772Z,27.02
2017-07-04T10:38:29.067Z,26.97
2017-07-04T10:39:37.718Z,26.94
2017-07-04T10:40:46.375Z,26.94
2017-07-04T10:41:55.355Z,26.81
2017-07-04T10:43:04.635Z,26.85
2017-07-04T10:44:13.607Z,26.84
2017-07-04T10:45:22.260Z,26.77
2017-07-04T10:46:31.540Z,26.84
2017-07-04T10:47:40.189Z,26.75
2017-07-04T10:48:49.177Z,26.77
2017-07-04T10:49:58.767Z,26.73
2017-07-04T10:51:08.052Z,26.81
2017-07-04T10:52:17.329Z,26.8
2017-07-04T10:53:26.327Z,26.76
2017-07-04T10:54:35.309Z,26.76
2017-07-04T10:55:43.956Z,26.82
2017-07-04T10:56:52.913Z,26.77
2017-07-04T10:58:01.557Z,26.67
2017-07-04T10:59:10.848Z,26.73
2017-07-04T11:00:20.127Z,26.75
2017-07-04T11:01:29.086Z,26.76
2017-07-04T11:02:38.398Z,26.72
2017-07-04T11:03:47.690Z,26.65
2017-07-04T11:04:57.287Z,26.67
2017-07-04T11:06:07.184Z,26.63
2017-07-04T11:07:15.841Z,26.66
2017-07-04T11:08:24.483Z,26.65
2017-07-04T11:09:33.144Z,26.63
2017-07-04T11:10:42.112Z,26.54
2017-07-04T11:11:50.773Z,26.55
2017-07-04T11:12:59.432Z,26.51
2017-07-04T11:14:08.715Z,26.57
2017-07-04T11:15:17.995Z,26.54
2017-07-04T11:16:27.586Z,26.55
2017-07-04T11:17:36.542Z,26.57
2017-07-04T11:18:45.198Z,26.51
2017-07-04T11:19:53.918Z,26.5
2017-07-04T11:21:03.184Z,26.51
2017-07-04T11:22:12.168Z,26.57
2017-07-04T11:23:20.831Z,26.58
2017-07-04T11:24:29.486Z,26.6
2017-07-04T11:25:38.834Z,26.62
2017-07-04T11:26:48.115Z,26.54
2017-07-04T11:27:57.408Z,26.55
2017-07-04T11:29:06.390Z,26.54
2017-07-04T11:30:15.999Z,26.57
2017-07-04T11:31:25.287Z,26.51
2017-07-04T11:32:34.267Z,26.54
2017-07-04T11:33:42.922Z,26.52
2017-07-04T11:34:52.197Z,26.5
2017-07-04T11:36:01.161Z,26.5
2017-07-04T11:37:10.125Z,26.52
2017-07-04T11:38:19.102Z,26.55
2017-07-04T11:39:28.381Z,26.52
2017-07-04T11:40:37.660Z,26.54
2017-07-04T11:41:46.957Z,26.52
2017-07-04T11:42:55.920Z,26.5
2017-07-04T11:44:04.890Z,26.47
2017-07-04T11:45:13.541Z,26.5
2017-07-04T11:46:23.129Z,26.43
2017-07-04T11:47:32.725Z,26.48
2017-07-04T11:48:41.698Z,26.47
2017-07-04T11:49:51.003Z,26.43
2017-07-04T11:51:00.282Z,26.44
2017-07-04T11:52:09.557Z,26.47
2017-07-04T11:53:18.527Z,26.43
2017-07-04T11:54:27.185Z,26.44
2017-07-04T11:55:36.138Z,26.43
2017-07-04T11:56:44.784Z,26.4
2017-07-04T11:57:53.735Z,26.43
2017-07-04T11:59:03.013Z,26.43
2017-07-04T12:00:12.289Z,26.4
2017-07-04T12:01:21.901Z,26.43
2017-07-04T12:02:31.183Z,26.39
2017-07-04T12:03:40.148Z,26.39
2017-07-04T12:04:49.195Z,26.37
2017-07-04T12:05:58.151Z,26.37
2017-07-04T12:07:07.428Z,26.39
2017-07-04T12:08:16.396Z,26.35
2017-07-04T12:09:25.354Z,26.37
2017-07-04T12:10:34.323Z,26.29
2017-07-04T12:11:43.606Z,26.32
2017-07-04T12:12:52.249Z,26.29
2017-07-04T12:14:00.921Z,26.3
2017-07-04T12:15:09.875Z,26.23
2017-07-04T12:16:19.146Z,26.23
2017-07-04T12:17:27.796Z,26.28
2017-07-04T12:18:37.078Z,26.35
2017-07-04T12:19:46.054Z,26.29
2017-07-04T12:20:55.344Z,26.3
2017-07-04T12:22:04.928Z,26.28
2017-07-04T12:23:13.577Z,26.26
2017-07-04T12:24:22.254Z,26.3
2017-07-04T12:25:31.571Z,26.26
2017-07-04T12:26:40.863Z,26.3
2017-07-04T12:27:49.833Z,26.26
2017-07-04T12:28:59.125Z,26.33
2017-07-04T12:30:08.105Z,26.29
2017-07-04T12:31:17.076Z,26.26
2017-07-04T12:32:25.758Z,26.26
2017-07-04T12:33:34.410Z,26.35
2017-07-04T12:34:43.705Z,26.26
2017-07-04T12:35:52.669Z,26.21
2017-07-04T12:37:01.643Z,26.25
2017-07-04T12:38:10.612Z,26.25
2017-07-04T12:39:19.582Z,26.25
2017-07-04T12:40:28.858Z,26.29
2017-07-04T12:41:38.154Z,26.26
2017-07-04T12:42:47.434Z,26.32
2017-07-04T12:43:56.718Z,26.29
2017-07-04T12:45:05.676Z,26.2
2017-07-04T12:46:14.952Z,26.18
2017-07-04T12:47:23.918Z,26.2
2017-07-04T12:48:33.212Z,26.25
2017-07-04T12:49:42.180Z,26.23
2017-07-04T12:50:51.451Z,26.25
2017-07-04T12:52:00.117Z,26.2
2017-07-04T12:53:09.384Z,26.23
2017-07-04T12:54:18.662Z,26.18
2017-07-04T12:55:27.630Z,26.25
2017-07-04T12:56:36.287Z,26.15
2017-07-04T12:57:45.563Z,26.25
2017-07-04T12:58:54.839Z,26.2
2017-07-04T13:00:03.814Z,26.25
2017-07-04T13:01:13.097Z,26.28
2017-07-04T13:02:22.378Z,26.28
2017-07-04T13:03:31.379Z,26.28
2017-07-04T13:04:40.347Z,26.21
2017-07-04T13:05:49.925Z,26.21
2017-07-04T13:06:58.882Z,26.26
2017-07-04T13:08:08.154Z,26.23
2017-07-04T13:09:16.803Z,26.28
2017-07-04T13:10:26.070Z,26.21
2017-07-04T13:11:35.027Z,26.23
2017-07-04T13:12:43.983Z,26.29
2017-07-04T13:13:53.278Z,26.28
2017-07-04T13:15:01.986Z,26.15
2017-07-04T13:16:10.973Z,26.26
2017-07-04T13:17:19.614Z,26.18
2017-07-04T13:18:28.592Z,26.18
2017-07-04T13:19:37.877Z,26.2
2017-07-04T13:20:47.158Z,26.2
2017-07-04T13:21:55.808Z,26.21
2017-07-04T13:23:05.089Z,26.09
2017-07-04T13:24:14.071Z,26.18
2017-07-04T13:25:23.409Z,26.09
2017-07-04T13:26:32.683Z,26.13
2017-07-04T13:27:41.334Z,26.18
2017-07-04T13:28:50.626Z,26.15
2017-07-04T13:29:59.906Z,26.1
2017-07-04T13:31:08.860Z,26.15
2017-07-04T13:32:19.121Z,26.07
2017-07-04T13:33:28.089Z,26.13
2017-07-04T13:34:37.370Z,26.13
2017-07-04T13:35:46.690Z,26.12
2017-07-04T13:36:55.354Z,26.13
2017-07-04T13:38:04.957Z,26.1
2017-07-04T13:39:13.927Z,26.07
2017-07-04T13:40:23.221Z,26.15
2017-07-04T13:41:32.810Z,26.15
2017-07-04T13:42:42.082Z,26.09
2017-07-04T13:43:50.734Z,26.1
2017-07-04T13:45:00.011Z,26.15
2017-07-04T13:46:08.982Z,26.15
2017-07-04T13:47:18.579Z,26.09
2017-07-04T13:48:27.869Z,26.07
2017-07-04T13:49:36.833Z,25.99
2017-07-04T13:50:45.815Z,26.07
2017-07-04T13:51:54.791Z,26.12
2017-07-04T13:53:04.392Z,26.1
2017-07-04T13:54:13.354Z,26.07
2017-07-04T13:55:23.292Z,26.07
2017-07-04T13:56:32.573Z,25.98
2017-07-04T13:57:41.546Z,26.12
2017-07-04T13:58:50.531Z,26.09
2017-07-04T14:00:00.131Z,25.99
2017-07-04T14:01:09.097Z,26.06
2017-07-04T14:02:18.071Z,25.99
2017-07-04T14:03:27.371Z,26.12
2017-07-04T14:04:36.652Z,26.01
2017-07-04T14:05:46.251Z,26.13
2017-07-04T14:06:55.546Z,26.15
2017-07-04T14:08:04.837Z,26.12
2017-07-04T14:09:13.813Z,26.13
2017-07-04T14:10:22.486Z,26.12
2017-07-04T14:11:31.458Z,26.1
2017-07-04T14:12:40.749Z,26.1
2017-07-04T14:13:49.708Z,26.1
2017-07-04T14:14:58.676Z,26.1
2017-07-04T14:16:07.330Z,26.06
2017-07-04T14:17:16.295Z,26.12
2017-07-04T14:18:25.262Z,26.01
2017-07-04T14:19:34.240Z,26.12
2017-07-04T14:20:43.206Z,26.07
2017-07-04T14:21:52.170Z,26.13
2017-07-04T14:23:01.449Z,26.13
2017-07-04T14:24:11.360Z,26.01
2017-07-04T14:25:20.329Z,26.07
2017-07-04T14:26:29.599Z,25.97
2017-07-04T14:27:38.885Z,26.12
2017-07-04T14:28:48.478Z,25.99
2017-07-04T14:29:57.767Z,26.12
2017-07-04T14:31:07.083Z,26.02
2017-07-04T14:32:15.731Z,25.95
2017-07-04T14:33:25.655Z,26.02
2017-07-04T14:34:34.622Z,25.98
2017-07-04T14:35:43.909Z,26.09
2017-07-04T14:36:52.872Z,25.98
2017-07-04T14:38:02.464Z,26.07
2017-07-04T14:39:11.750Z,25.98
2017-07-04T14:40:20.398Z,26.06
2017-07-04T14:41:30.297Z,26.01
2017-07-04T14:42:39.280Z,26.07
2017-07-04T14:43:48.234Z,26.09
2017-07-04T14:44:57.828Z,26.13
2017-07-04T14:46:06.790Z,26.09
2017-07-04T14:47:15.744Z,26.01
2017-07-04T14:48:25.022Z,26.09
2017-07-04T14:49:33.995Z,26.07
2017-07-04T14:50:42.950Z,26.1
2017-07-04T14:51:51.910Z,26.07
2017-07-04T14:53:00.553Z,26.1